Time;durP1;ratioP1;P1;durP2;ratioP2;P2;SDS_P1;SDS_P2;PMS_P1;PMS_P2;Temp;Humidity;BMP_temperature;BMP_pressure;BME280_temperature;BME280_humidity;BME280_pressure;Samples;Min_cycle;Max_cycle;Signal;HPM_P1;HPM_P2
2022/07/21 00:01:58;;;;;;;;;;;;;;;;;;5050519;28;45332;-76
2022/07/21 00:04:24;;;;;;;;;;;;;;;;;;5052664;28;46743;-76
2022/07/21 00:06:50;;;;;;;;;;;;;;;;;;5050988;28;47463;-76
2022/07/21 00:09:17;;;;;;;;;;;;;;;;;;5066516;28;47455;-76
2022/07/21 00:11:43;;;;;;;;;;;;;;;;;;5069194;28;44741;-76
2022/07/21 00:14:09;;;;;;;;;;;;;;;;;;5045559;28;46537;-76
2022/07/21 00:16:36;;;;;;;;;;;;;;;;;;5049746;28;48151;-75
2022/07/21 00:19:02;;;;;;;;;;;;;;;;;;5067272;28;45523;-76
2022/07/21 00:21:28;;;;;;;;;;;;;;;;;;5069332;28;47628;-76
2022/07/21 00:23:55;;;;;;;;;;;;;;;;;;5050615;28;46339;-76
2022/07/21 00:26:21;;;;;;;;;;;;;;;;;;5051279;28;41890;-76
2022/07/21 00:28:47;;;;;;;;;;;;;;;;;;5067753;28;47019;-76
2022/07/21 00:31:13;;;;;;;;;;;;;;;;;;5061384;28;41810;-75
2022/07/21 00:33:40;;;;;;;;;;;;;;;;;;5069829;28;44392;-76
2022/07/21 00:36:06;;;;;;;;;;;;;;;;;;5052269;28;47000;-76
2022/07/21 00:38:32;;;;;;;;;;;;;;;;;;5048818;28;44905;-76
2022/07/21 00:40:58;;;;;;;;;;;;;;;;;;5068516;28;47808;-76
2022/07/21 00:43:25;;;;;;;;;;;;;;;;;;5068839;28;48745;-76
2022/07/21 00:45:51;;;;;;;;;;;;;;;;;;5069869;28;44126;-76
2022/07/21 00:48:17;;;;;;;;;;;;;;;;;;5064869;28;46839;-76
2022/07/21 00:50:43;;;;;;;;;;;;;;;;;;5052609;28;43624;-76
2022/07/21 00:53:10;;;;;;;;;;;;;;;;;;5051034;28;47310;-76
2022/07/21 00:55:36;;;;;;;;;;;;;;;;;;5052041;28;45469;-76
2022/07/21 00:58:03;;;;;;;;;;;;;;;;;;5051437;28;44862;-79
2022/07/21 01:00:29;;;;;;;;;;;;;;;;;;5051871;28;46691;-78
2022/07/21 01:03:00;;;;;;;;;;;;;;;;;;5070368;28;45480;-78
2022/07/21 01:05:26;;;;;;;;;;;;;;;;;;5045853;28;43740;-78
2022/07/21 01:07:53;;;;;;;;;;;;;;;;;;5052175;28;47664;-79
2022/07/21 01:10:19;;;;;;;;;;;;;;;;;;5051789;28;45970;-78
2022/07/21 01:12:45;;;;;;;;;;;;;;;;;;5052738;28;44680;-78
2022/07/21 01:15:11;;;;;;;;;;;;;;;;;;5051937;28;46738;-78
2022/07/21 01:17:38;;;;;;;;;;;;;;;;;;5048623;28;47796;-78
2022/07/21 01:20:05;;;;;;;;;;;;;;;;;;5049967;28;46029;-79
2022/07/21 01:22:31;;;;;;;;;;;;;;;;;;5065343;28;51575;-79
2022/07/21 01:24:57;;;;;;;;;;;;;;;;;;5067714;28;42106;-78
2022/07/21 01:27:24;;;;;;;;;;;;;;;;;;5068130;28;49274;-79
2022/07/21 01:29:50;;;;;;;;;;;;;;;;;;5051480;28;47353;-78
2022/07/21 01:32:16;;;;;;;;;;;;;;;;;;5051392;28;43756;-78
2022/07/21 01:34:42;;;;;;;;;;;;;;;;;;5055131;28;46919;-77
2022/07/21 01:37:09;;;;;;;;;;;;;;;;;;5070496;28;44910;-78
2022/07/21 01:42:21;;;;;;;;;;;;;;;;;;5068816;28;46402;-79
2022/07/21 01:44:47;;;;;;;;;;;;;;;;;;5067910;28;45869;-79
2022/07/21 01:47:14;;;;;;;;;;;;;;;;;;5044058;28;44775;-79
2022/07/21 01:49:40;;;;;;;;;;;;;;;;;;5049337;28;47062;-79
2022/07/21 01:52:07;;;;;;;;;;;;;;;;;;5051683;28;44847;-79
2022/07/21 01:54:33;;;;;;;;;;;;;;;;;;5050340;28;46330;-78
2022/07/21 01:56:59;;;;;;;;;;;;;;;;;;5061019;28;42206;-78
2022/07/21 01:59:25;;;;;;;;;;;;;;;;;;5070096;28;45333;-79
2022/07/21 02:01:52;;;;;;;;;;;;;;;;;;5070061;28;45314;-78
2022/07/21 02:04:18;;;;;;;;;;;;;;;;;;5049615;28;45248;-78
2022/07/21 02:06:45;;;;;;;;;;;;;;;;;;5052280;28;46612;-77
2022/07/21 02:09:11;;;;;;;;;;;;;;;;;;5058305;28;48099;-78
2022/07/21 02:11:37;;;;;;;;;;;;;;;;;;5054853;28;44096;-78
2022/07/21 02:14:03;;;;;;;;;;;;;;;;;;5053880;28;46567;-77
2022/07/21 02:16:30;;;;;;;;;;;;;;;;;;5046527;28;42473;-78
2022/07/21 02:18:56;;;;;;;;;;;;;;;;;;5069552;28;48740;-79
2022/07/21 02:21:23;;;;;;;;;;;;;;;;;;5061827;28;46912;-78
2022/07/21 02:23:49;;;;;;;;;;;;;;;;;;5069044;28;43529;-78
2022/07/21 02:26:15;;;;;;;;;;;;;;;;;;5049858;28;45351;-78
2022/07/21 02:28:41;;;;;;;;;;;;;;;;;;5067356;28;48127;-77
2022/07/21 02:31:08;;;;;;;;;;;;;;;;;;5049459;28;44614;-78
2022/07/21 02:33:34;;;;;;;;;;;;;;;;;;5066755;28;46391;-78
2022/07/21 02:36:01;;;;;;;;;;;;;;;;;;5048699;28;47015;-79
2022/07/21 02:38:27;;;;;;;;;;;;;;;;;;5050854;28;48866;-79
2022/07/21 02:40:54;;;;;;;;;;;;;;;;;;5065791;28;45646;-78
2022/07/21 02:43:22;;;;;;;;;;;;;;;;;;5048803;28;45043;-79
2022/07/21 02:45:49;;;;;;;;;;;;;;;;;;5045553;28;47505;-78
2022/07/21 02:48:15;;;;;;;;;;;;;;;;;;5065050;28;45279;-77
2022/07/21 02:50:41;;;;;;;;;;;;;;;;;;5067807;28;44136;-78
2022/07/21 02:53:08;;;;;;;;;;;;;;;;;;5051720;28;48281;-79
2022/07/21 02:55:34;;;;;;;;;;;;;;;;;;5066894;28;48074;-78
2022/07/21 02:58:00;;;;;;;;;;;;;;;;;;5051601;28;45232;-79
2022/07/21 03:00:26;;;;;;;;;;;;;;;;;;5049866;28;46970;-79
2022/07/21 03:02:53;;;;;;;;;;;;;;;;;;5064319;28;43626;-79
2022/07/21 03:05:19;;;;;;;;;;;;;;;;;;5063919;28;46311;-78
2022/07/21 03:07:45;;;;;;;;;;;;;;;;;;5049695;28;48460;-77
2022/07/21 03:10:11;;;;;;;;;;;;;;;;;;5067037;28;43362;-79
2022/07/21 03:12:37;;;;;;;;;;;;;;;;;;5069422;28;44021;-78
2022/07/21 03:15:04;;;;;;;;;;;;;;;;;;5043664;28;50044;-78
2022/07/21 03:17:30;;;;;;;;;;;;;;;;;;5049855;28;44838;-78
2022/07/21 03:19:56;;;;;;;;;;;;;;;;;;5049759;28;45798;-78
2022/07/21 03:22:22;;;;;;;;;;;;;;;;;;5068979;28;43784;-78
2022/07/21 03:24:50;;;;;;;;;;;;;;;;;;5056163;28;45191;-78
2022/07/21 03:27:17;;;;;;;;;;;;;;;;;;5048328;28;48108;-78
2022/07/21 03:29:50;;;;;;;;;;;;;;;;;;5066866;28;43957;-77
2022/07/21 03:32:17;;;;;;;;;;;;;;;;;;5066698;28;48454;-78
2022/07/21 03:34:45;;;;;;;;;;;;;;;;;;5048984;28;47007;-78
2022/07/21 03:37:11;;;;;;;;;;;;;;;;;;5049162;28;43041;-79
2022/07/21 03:39:37;;;;;;;;;;;;;;;;;;5037188;28;47479;-79
2022/07/21 03:42:03;;;;;;;;;;;;;;;;;;5049966;28;45616;-79
2022/07/21 03:44:30;;;;;;;;;;;;;;;;;;5061440;28;46248;-78
2022/07/21 03:46:58;;;;;;;;;;;;;;;;;;5058276;28;46429;-78
2022/07/21 03:49:24;;;;;;;;;;;;;;;;;;5047867;28;44478;-77
2022/07/21 03:51:51;;;;;;;;;;;;;;;;;;5048134;28;44201;-78
2022/07/21 03:54:17;;;;;;;;;;;;;;;;;;5046178;28;47200;-77
2022/07/21 03:56:43;;;;;;;;;;;;;;;;;;5047073;28;45126;-78
2022/07/21 03:59:10;;;;;;;;;;;;;;;;;;5065562;28;49781;-78
2022/07/21 04:01:36;;;;;;;;;;;;;;;;;;5050229;28;46938;-77
2022/07/21 04:04:02;;;;;;;;;;;;;;;;;;5065790;28;47609;-78
2022/07/21 04:06:29;;;;;;;;;;;;;;;;;;5048054;28;46894;-79
2022/07/21 04:08:55;;;;;;;;;;;;;;;;;;5048304;28;41510;-78
2022/07/21 04:11:21;;;;;;;;;;;;;;;;;;5038674;28;44872;-78
2022/07/21 04:13:48;;;;;;;;;;;;;;;;;;5046428;28;47819;-78
2022/07/21 04:16:14;;;;;;;;;;;;;;;;;;5045252;28;44830;-77
2022/07/21 04:18:41;;;;;;;;;;;;;;;;;;5065781;28;44525;-78
2022/07/21 04:21:08;;;;;;;;;;;;;;;;;;5049246;28;48313;-78
2022/07/21 04:23:34;;;;;;;;;;;;;;;;;;5047739;28;43048;-78
2022/07/21 04:26:00;;;;;;;;;;;;;;;;;;5065450;28;47565;-77
2022/07/21 04:28:27;;;;;;;;;;;;;;;;;;5045972;28;43835;-77
2022/07/21 04:30:53;;;;;;;;;;;;;;;;;;5047423;28;47303;-77
2022/07/21 04:33:19;;;;;;;;;;;;;;;;;;5066185;28;45239;-78
2022/07/21 04:35:46;;;;;;;;;;;;;;;;;;5046685;28;43069;-77
2022/07/21 04:38:12;;;;;;;;;;;;;;;;;;5061106;28;47507;-77
2022/07/21 04:40:38;;;;;;;;;;;;;;;;;;5051175;28;47842;-78
2022/07/21 04:43:05;;;;;;;;;;;;;;;;;;5068893;28;44708;-78
2022/07/21 04:45:31;;;;;;;;;;;;;;;;;;5063136;28;47750;-78
2022/07/21 04:47:57;;;;;;;;;;;;;;;;;;5047671;28;42643;-79
2022/07/21 04:50:23;;;;;;;;;;;;;;;;;;5068194;28;47516;-75
2022/07/21 04:52:50;;;;;;;;;;;;;;;;;;5050555;28;48405;-76
2022/07/21 04:55:16;;;;;;;;;;;;;;;;;;5049775;28;45261;-75
2022/07/21 04:57:42;;;;;;;;;;;;;;;;;;5067364;28;46469;-76
2022/07/21 05:00:09;;;;;;;;;;;;;;;;;;5067935;28;48512;-76
2022/07/21 05:02:35;;;;;;;;;;;;;;;;;;5041817;28;44791;-78
2022/07/21 05:05:01;;;;;;;;;;;;;;;;;;5068163;28;46214;-77
2022/07/21 05:07:28;;;;;;;;;;;;;;;;;;5059792;28;48042;-77
2022/07/21 05:09:54;;;;;;;;;;;;;;;;;;5066847;28;46058;-79
2022/07/21 05:12:20;;;;;;;;;;;;;;;;;;5052168;28;46619;-78
2022/07/21 05:14:46;;;;;;;;;;;;;;;;;;5070601;28;44778;-79
2022/07/21 05:17:13;;;;;;;;;;;;;;;;;;5049582;28;46431;-79
2022/07/21 05:19:43;;;;;;;;;;;;;;;;;;5051245;28;48436;-79
2022/07/21 05:22:09;;;;;;;;;;;;;;;;;;5050945;28;42847;-78
2022/07/21 05:24:35;;;;;;;;;;;;;;;;;;5051138;28;47510;-76
2022/07/21 05:27:03;;;;;;;;;;;;;;;;;;5047232;28;48241;-78
2022/07/21 05:29:30;;;;;;;;;;;;;;;;;;5051155;28;43157;-77
2022/07/21 05:31:56;;;;;;;;;;;;;;;;;;5040580;28;49540;-78
2022/07/21 05:34:22;;;;;;;;;;;;;;;;;;5044237;28;41812;-79
2022/07/21 05:36:48;;;;;;;;;;;;;;;;;;5067942;28;47628;-78
2022/07/21 05:39:15;;;;;;;;;;;;;;;;;;5055858;28;46841;-77
2022/07/21 05:41:41;;;;;;;;;;;;;;;;;;5074675;28;43781;-77
2022/07/21 05:44:07;;;;;;;;;;;;;;;;;;5054607;28;46808;-75
2022/07/21 05:46:34;;;;;;;;;;;;;;;;;;5065212;28;47415;-76
2022/07/21 05:49:00;;;;;;;;;;;;;;;;;;5067005;28;42879;-75
2022/07/21 05:51:26;;;;;;;;;;;;;;;;;;5055873;28;47108;-74
2022/07/21 05:53:52;;;;;;;;;;;;;;;;;;5057931;28;43343;-75
2022/07/21 05:56:19;;;;;;;;;;;;;;;;;;5039527;28;48881;-74
2022/07/21 05:58:45;;;;;;;;;;;;;;;;;;5063269;28;48340;-75
2022/07/21 06:01:16;;;;;;;;;;;;;;;;;;5063308;28;45301;-75
2022/07/21 06:03:42;;;;;;;;;;;;;;;;;;5049449;28;46150;-77
2022/07/21 06:06:09;;;;;;;;;;;;;;;;;;5046511;28;45604;-78
2022/07/21 06:08:35;;;;;;;;;;;;;;;;;;5037719;28;41787;-76
2022/07/21 06:11:01;;;;;;;;;;;;;;;;;;5085773;22;49229;-75
2022/07/21 06:13:27;;;;;;;;;;;;;;;;;;5025188;28;44819;-76
2022/07/21 06:15:54;;;;;;;;;;;;;;;;;;5026994;28;47018;-76
2022/07/21 06:18:20;;;;;;;;;;;;;;;;;;5042750;28;45588;-77
2022/07/21 06:20:46;;;;;;;;;;;;;;;;;;5044979;28;42115;-77
2022/07/21 06:23:13;;;;;;;;;;;;;;;;;;5028203;28;47542;-77
2022/07/21 06:25:39;;;;;;;;;;;;;;;;;;5025600;28;46153;-77
2022/07/21 06:28:05;;;;;;;;;;;;;;;;;;5022071;28;44660;-77
2022/07/21 06:30:31;;;;;;;;;;;;;;;;;;5027539;28;45784;-76
2022/07/21 06:32:58;;;;;;;;;;;;;;;;;;5028523;28;47056;-77
2022/07/21 06:35:24;;;;;;;;;;;;;;;;;;5027566;28;44104;-77
2022/07/21 06:37:51;;;;;;;;;;;;;;;;;;5027159;28;45865;-76
2022/07/21 06:40:17;;;;;;;;;;;;;;;;;;5022497;28;43466;-76
2022/07/21 06:42:43;;;;;;;;;;;;;;;;;;5023980;28;45351;-77
2022/07/21 06:45:29;;;;;;;;;;;;;;;;;;5022165;28;19956;-77
2022/07/21 06:47:55;;;;;;;;;;;;;;;;;;5018351;28;45922;-77
2022/07/21 06:50:22;;;;;;;;;;;;;;;;;;5026567;28;49092;-77
2022/07/21 06:52:48;;;;;;;;;;;;;;;;;;5027389;28;48225;-77
2022/07/21 06:55:14;;;;;;;;;;;;;;;;;;5028970;28;43622;-77
2022/07/21 06:57:40;;;;;;;;;;;;;;;;;;5025076;28;45740;-77
2022/07/21 07:00:08;;;;;;;;;;;;;;;;;;5026450;28;45613;-77
2022/07/21 07:02:34;;;;;;;;;;;;;;;;;;5007145;28;46998;-81
2022/07/21 07:05:00;;;;;;;;;;;;;;;;;;5037562;28;48033;-79
2022/07/21 07:07:32;;;;;;;;;;;;;;;;;;5024748;28;44726;-80
2022/07/21 07:09:59;;;;;;;;;;;;;;;;;;5026065;28;47669;-79
2022/07/21 07:12:25;;;;;;;;;;;;;;;;;;5023355;28;48175;-78
2022/07/21 07:15:11;;;;;;;;;;;;;;;;;;5028666;28;19951;-79
2022/07/21 07:17:38;;;;;;;;;;;;;;;;;;5021024;28;46376;-78
2022/07/21 07:20:06;;;;;;;;;;;;;;;;;;5013812;28;43799;-78
2022/07/21 07:22:32;;;;;;;;;;;;;;;;;;5027512;28;47221;-75
2022/07/21 07:24:58;;;;;;;;;;;;;;;;;;5025693;28;47108;-77
2022/07/21 07:27:24;;;;;;;;;;;;;;;;;;5025397;28;43674;-78
2022/07/21 07:29:55;;;;;;;;;;;;;;;;;;5027326;28;47631;-77
2022/07/21 07:32:21;;;;;;;;;;;;;;;;;;5027270;28;47495;-80
2022/07/21 07:34:48;;;;;;;;;;;;;;;;;;5019322;28;43878;-78
2022/07/21 07:37:14;;;;;;;;;;;;;;;;;;5009338;28;45193;-79
2022/07/21 07:39:40;;;;;;;;;;;;;;;;;;5026287;28;46882;-79
2022/07/21 07:42:07;;;;;;;;;;;;;;;;;;5011232;28;47500;-78
2022/07/21 07:44:33;;;;;;;;;;;;;;;;;;5007248;28;48121;-78
2022/07/21 07:47:01;;;;;;;;;;;;;;;;;;5006460;28;45115;-79
2022/07/21 07:49:28;;;;;;;;;;;;;;;;;;5023334;28;46269;-79
2022/07/21 07:51:54;;;;;;;;;;;;;;;;;;5019515;28;48018;-79
2022/07/21 07:54:20;;;;;;;;;;;;;;;;;;5007476;28;45140;-79
2022/07/21 07:56:47;;;;;;;;;;;;;;;;;;5018716;28;46545;-77
2022/07/21 07:59:13;;;;;;;;;;;;;;;;;;5026722;28;48283;-77
2022/07/21 08:01:39;;;;;;;;;;;;;;;;;;5025658;28;44816;-77
2022/07/21 08:04:06;;;;;;;;;;;;;;;;;;5021687;28;46262;-77
2022/07/21 08:06:32;;;;;;;;;;;;;;;;;;5024429;28;43784;-77
2022/07/21 08:08:58;;;;;;;;;;;;;;;;;;5018651;28;47438;-77
2022/07/21 08:11:24;;;;;;;;;;;;;;;;;;5006027;28;46516;-77
2022/07/21 08:13:51;;;;;;;;;;;;;;;;;;5009021;28;45968;-80
2022/07/21 08:16:17;;;;;;;;;;;;;;;;;;5030639;28;45326;-79
2022/07/21 08:18:44;;;;;;;;;;;;;;;;;;5025642;28;45220;-81
2022/07/21 08:21:14;;;;;;;;;;;;;;;;;;5029426;28;41559;-78
2022/07/21 08:23:40;;;;;;;;;;;;;;;;;;5029051;28;48259;-80
2022/07/21 08:26:06;;;;;;;;;;;;;;;;;;5026198;28;43733;-79
2022/07/21 08:28:32;;;;;;;;;;;;;;;;;;5028984;28;47715;-79
2022/07/21 08:30:59;;;;;;;;;;;;;;;;;;5029020;28;44450;-79
2022/07/21 08:33:25;;;;;;;;;;;;;;;;;;5026679;28;44853;-78
2022/07/21 08:35:51;;;;;;;;;;;;;;;;;;5028104;28;46681;-78
2022/07/21 08:38:19;;;;;;;;;;;;;;;;;;5028595;28;47956;-78
2022/07/21 08:40:46;;;;;;;;;;;;;;;;;;5027150;28;41391;-79
2022/07/21 08:43:13;;;;;;;;;;;;;;;;;;5021918;28;46383;-78
2022/07/21 08:45:39;;;;;;;;;;;;;;;;;;5011138;28;44852;-78
2022/07/21 08:48:05;;;;;;;;;;;;;;;;;;5030308;28;45326;-78
2022/07/21 08:50:32;;;;;;;;;;;;;;;;;;5029633;28;48068;-78
2022/07/21 08:52:58;;;;;;;;;;;;;;;;;;5028986;28;42827;-78
2022/07/21 08:55:26;;;;;;;;;;;;;;;;;;5028869;28;47663;-78
2022/07/21 08:57:52;;;;;;;;;;;;;;;;;;5029275;28;46898;-78
2022/07/21 09:00:18;;;;;;;;;;;;;;;;;;5029120;28;44828;-78
2022/07/21 09:02:44;;;;;;;;;;;;;;;;;;5030242;28;44488;-78
2022/07/21 09:05:11;;;;;;;;;;;;;;;;;;5030660;28;46766;-77
2022/07/21 09:07:37;;;;;;;;;;;;;;;;;;5028837;28;47470;-77
2022/07/21 09:10:03;;;;;;;;;;;;;;;;;;5029351;28;48129;-77
2022/07/21 09:12:32;;;;;;;;;;;;;;;;;;5029380;28;42643;-77
2022/07/21 09:14:59;;;;;;;;;;;;;;;;;;5024314;28;44820;-76
2022/07/21 09:17:25;;;;;;;;;;;;;;;;;;5018822;28;46878;-75
2022/07/21 09:20:12;;;;;;;;;;;;;;;;;;5020873;28;19934;-76
2022/07/21 09:22:38;;;;;;;;;;;;;;;;;;5025580;28;47695;-76
2022/07/21 09:25:05;;;;;;;;;;;;;;;;;;5022205;28;48010;-76
2022/07/21 09:27:31;;;;;;;;;;;;;;;;;;5026667;28;44732;-75
2022/07/21 09:29:57;;;;;;;;;;;;;;;;;;5022571;28;46982;-76
2022/07/21 09:32:24;;;;;;;;;;;;;;;;;;5026847;28;44972;-76
2022/07/21 09:34:50;;;;;;;;;;;;;;;;;;5026535;28;45341;-76
2022/07/21 09:37:16;;;;;;;;;;;;;;;;;;5018415;28;46634;-74
2022/07/21 09:39:43;;;;;;;;;;;;;;;;;;5026017;28;41406;-76
2022/07/21 09:42:09;;;;;;;;;;;;;;;;;;5021655;28;48446;-77
2022/07/21 09:44:36;;;;;;;;;;;;;;;;;;5032165;28;47023;-76
2022/07/21 09:47:02;;;;;;;;;;;;;;;;;;5024907;28;44684;-76
2022/07/21 09:49:28;;;;;;;;;;;;;;;;;;5025666;28;44670;-76
2022/07/21 09:52:18;;;;;;;;;;;;;;;;;;5018859;28;19930;-76
2022/07/21 09:54:44;;;;;;;;;;;;;;;;;;5021814;28;47525;-76
2022/07/21 09:57:15;;;;;;;;;;;;;;;;;;5023452;28;48297;-76
2022/07/21 09:59:41;;;;;;;;;;;;;;;;;;5026793;28;44845;-76
2022/07/21 10:02:27;;;;;;;;;;;;;;;;;;5016276;28;19940;-76
2022/07/21 10:04:54;;;;;;;;;;;;;;;;;;5023544;28;49118;-76
2022/07/21 10:07:32;;;;;;;;;;;;;;;;;;5023362;28;41827;-76
2022/07/21 10:09:58;;;;;;;;;;;;;;;;;;5024060;28;47835;-76
2022/07/21 10:12:24;;;;;;;;;;;;;;;;;;5025674;28;35817;-76
2022/07/21 10:14:50;;;;;;;;;;;;;;;;;;5018859;28;44962;-76
2022/07/21 10:17:17;;;;;;;;;;;;;;;;;;5027784;28;47000;-77
2022/07/21 10:19:43;;;;;;;;;;;;;;;;;;5026220;28;42304;-78
2022/07/21 10:22:09;;;;;;;;;;;;;;;;;;5027228;28;46597;-76
2022/07/21 10:24:35;;;;;;;;;;;;;;;;;;5029158;28;48093;-76
2022/07/21 10:27:02;;;;;;;;;;;;;;;;;;5026346;28;44809;-75
2022/07/21 10:29:28;;;;;;;;;;;;;;;;;;5021096;28;44892;-76
2022/07/21 10:31:54;;;;;;;;;;;;;;;;;;5020512;28;46870;-75
2022/07/21 10:34:21;;;;;;;;;;;;;;;;;;5018681;28;46894;-77
2022/07/21 10:36:47;;;;;;;;;;;;;;;;;;5020904;28;47294;-77
2022/07/21 10:39:16;;;;;;;;;;;;;;;;;;5013316;28;44900;-77
2022/07/21 10:41:43;;;;;;;;;;;;;;;;;;5016684;28;45411;-77
2022/07/21 10:44:09;;;;;;;;;;;;;;;;;;5021753;28;46267;-77
2022/07/21 10:46:35;;;;;;;;;;;;;;;;;;5020699;28;44828;-77
2022/07/21 10:49:02;;;;;;;;;;;;;;;;;;5027391;28;47388;-78
2022/07/21 10:51:28;;;;;;;;;;;;;;;;;;5021104;28;47677;-77
2022/07/21 10:53:54;;;;;;;;;;;;;;;;;;5025770;28;44726;-77
2022/07/21 10:56:21;;;;;;;;;;;;;;;;;;5025610;28;48041;-78
2022/07/21 10:58:47;;;;;;;;;;;;;;;;;;5017903;28;45529;-77
2022/07/21 11:01:13;;;;;;;;;;;;;;;;;;5024479;28;47463;-77
2022/07/21 11:03:45;;;;;;;;;;;;;;;;;;5024614;28;47235;-77
2022/07/21 11:06:11;;;;;;;;;;;;;;;;;;5025400;28;45740;-77
2022/07/21 11:08:38;;;;;;;;;;;;;;;;;;5025926;28;46535;-77
2022/07/21 11:11:04;;;;;;;;;;;;;;;;;;5021883;28;47185;-77
2022/07/21 11:13:30;;;;;;;;;;;;;;;;;;5012213;28;44814;-77
2022/07/21 11:15:57;;;;;;;;;;;;;;;;;;5022751;28;47760;-77
2022/07/21 11:18:23;;;;;;;;;;;;;;;;;;5026015;28;42644;-78
2022/07/21 11:20:49;;;;;;;;;;;;;;;;;;5025195;28;46311;-77
2022/07/21 11:23:15;;;;;;;;;;;;;;;;;;5026464;28;47021;-77
2022/07/21 11:25:42;;;;;;;;;;;;;;;;;;5026321;28;43883;-77
2022/07/21 11:28:09;;;;;;;;;;;;;;;;;;5020540;28;47568;-77
2022/07/21 11:30:35;;;;;;;;;;;;;;;;;;5025664;28;47012;-77
2022/07/21 11:33:01;;;;;;;;;;;;;;;;;;5016373;28;44678;-77
2022/07/21 11:35:27;;;;;;;;;;;;;;;;;;5019042;28;46519;-78
2022/07/21 11:37:54;;;;;;;;;;;;;;;;;;5022263;28;48626;-77
2022/07/21 11:40:20;;;;;;;;;;;;;;;;;;5024030;28;46321;-78
2022/07/21 11:42:46;;;;;;;;;;;;;;;;;;5024015;28;48425;-77
2022/07/21 11:45:13;;;;;;;;;;;;;;;;;;5028023;28;41634;-77
2022/07/21 11:47:39;;;;;;;;;;;;;;;;;;5023414;28;47378;-77
2022/07/21 11:50:06;;;;;;;;;;;;;;;;;;5018133;28;45854;-77
2022/07/21 11:52:32;;;;;;;;;;;;;;;;;;5022897;28;42678;-78
2022/07/21 11:54:58;;;;;;;;;;;;;;;;;;5024132;28;46434;-78
2022/07/21 11:57:25;;;;;;;;;;;;;;;;;;5022075;28;46842;-78
2022/07/21 11:59:52;;;;;;;;;;;;;;;;;;5018643;28;41956;-78
2022/07/21 12:02:18;;;;;;;;;;;;;;;;;;5019205;28;47023;-78
2022/07/21 12:04:45;;;;;;;;;;;;;;;;;;5023515;28;45105;-78
2022/07/21 12:07:12;;;;;;;;;;;;;;;;;;5017168;28;47229;-77
2022/07/21 12:09:38;;;;;;;;;;;;;;;;;;5021779;28;47014;-77
2022/07/21 12:12:04;;;;;;;;;;;;;;;;;;5022799;28;43728;-78
2022/07/21 12:14:30;;;;;;;;;;;;;;;;;;5021084;28;46439;-78
2022/07/21 12:16:57;;;;;;;;;;;;;;;;;;5016834;28;47105;-78
2022/07/21 12:19:23;;;;;;;;;;;;;;;;;;5023880;28;44690;-78
2022/07/21 12:21:52;;;;;;;;;;;;;;;;;;5021942;28;47948;-78
2022/07/21 12:24:18;;;;;;;;;;;;;;;;;;5016777;28;41064;-78
2022/07/21 12:26:45;;;;;;;;;;;;;;;;;;5018570;28;46721;-77
2022/07/21 12:29:11;;;;;;;;;;;;;;;;;;5018782;28;45650;-78
2022/07/21 12:31:37;;;;;;;;;;;;;;;;;;5021563;28;40641;-78
2022/07/21 12:34:04;;;;;;;;;;;;;;;;;;5027243;28;47581;-78
2022/07/21 12:36:50;;;;;;;;;;;;;;;;;;5027254;28;19933;-78
2022/07/21 12:42:01;;;;;;;;;;;;;;;;;;5014191;28;44525;-78
2022/07/21 12:44:27;;;;;;;;;;;;;;;;;;5020288;28;45572;-76
2022/07/21 12:46:54;;;;;;;;;;;;;;;;;;5011862;28;46349;-76
2022/07/21 12:49:20;;;;;;;;;;;;;;;;;;5017281;28;48859;-76
2022/07/21 12:51:46;;;;;;;;;;;;;;;;;;5023615;28;44743;-76
2022/07/21 12:54:12;;;;;;;;;;;;;;;;;;5021330;28;47452;-76
2022/07/21 12:56:40;;;;;;;;;;;;;;;;;;5018006;28;46735;-76
2022/07/21 12:59:06;;;;;;;;;;;;;;;;;;5011558;28;43630;-77
2022/07/21 13:01:32;;;;;;;;;;;;;;;;;;5020651;28;46644;-76
2022/07/21 13:03:59;;;;;;;;;;;;;;;;;;5016064;28;45030;-76
2022/07/21 13:06:26;;;;;;;;;;;;;;;;;;5009851;28;46858;-76
2022/07/21 13:08:52;;;;;;;;;;;;;;;;;;5011912;28;47972;-76
2022/07/21 13:11:19;;;;;;;;;;;;;;;;;;5019353;28;43816;-77
2022/07/21 13:13:45;;;;;;;;;;;;;;;;;;5024458;28;46427;-77
2022/07/21 13:16:12;;;;;;;;;;;;;;;;;;5028197;28;44228;-76
2022/07/21 13:18:38;;;;;;;;;;;;;;;;;;5021898;28;45184;-77
2022/07/21 13:21:04;;;;;;;;;;;;;;;;;;5025656;28;44102;-77
2022/07/21 13:23:30;;;;;;;;;;;;;;;;;;5022459;28;45484;-76
2022/07/21 13:25:57;;;;;;;;;;;;;;;;;;5023791;28;44804;-77
2022/07/21 13:28:30;;;;;;;;;;;;;;;;;;5024859;28;48404;-76
2022/07/21 13:30:56;;;;;;;;;;;;;;;;;;5024498;28;45214;-77
2022/07/21 13:33:23;;;;;;;;;;;;;;;;;;5025198;28;47613;-77
2022/07/21 13:35:50;;;;;;;;;;;;;;;;;;5025101;28;48115;-77
2022/07/21 13:38:17;;;;;;;;;;;;;;;;;;5022017;28;44979;-78
2022/07/21 13:40:43;;;;;;;;;;;;;;;;;;5023141;28;43739;-77
2022/07/21 13:43:29;;;;;;;;;;;;;;;;;;5033976;28;20397;-77
2022/07/21 13:46:02;;;;;;;;;;;;;;;;;;5032610;28;45018;-77
2022/07/21 13:48:28;;;;;;;;;;;;;;;;;;5022936;28;45125;-78
2022/07/21 13:50:55;;;;;;;;;;;;;;;;;;5035834;28;44836;-77
2022/07/21 13:53:21;;;;;;;;;;;;;;;;;;5023985;28;45639;-77
2022/07/21 13:55:48;;;;;;;;;;;;;;;;;;5029763;28;45882;-77
2022/07/21 13:58:14;;;;;;;;;;;;;;;;;;5028129;28;42650;-77
2022/07/21 14:00:40;;;;;;;;;;;;;;;;;;5025653;28;45342;-77
2022/07/21 14:03:09;;;;;;;;;;;;;;;;;;5024171;28;46238;-77
2022/07/21 14:05:35;;;;;;;;;;;;;;;;;;5024837;28;42785;-77
2022/07/21 14:08:01;;;;;;;;;;;;;;;;;;5022520;28;46136;-77
2022/07/21 14:10:27;;;;;;;;;;;;;;;;;;5025591;28;46886;-77
2022/07/21 14:12:54;;;;;;;;;;;;;;;;;;5030197;28;46244;-77
2022/07/21 14:15:20;;;;;;;;;;;;;;;;;;5017490;28;47003;-77
2022/07/21 14:17:46;;;;;;;;;;;;;;;;;;5028196;28;43571;-77
2022/07/21 14:20:16;;;;;;;;;;;;;;;;;;5028319;28;46618;-77
2022/07/21 14:22:45;;;;;;;;;;;;;;;;;;5021516;28;48283;-77
2022/07/21 14:25:18;;;;;;;;;;;;;;;;;;5029869;28;42827;-77
2022/07/21 14:27:46;;;;;;;;;;;;;;;;;;5030296;28;34435;-76
2022/07/21 14:30:12;;;;;;;;;;;;;;;;;;5026618;28;46838;-77
2022/07/21 14:32:39;;;;;;;;;;;;;;;;;;5026474;28;47573;-76
2022/07/21 14:35:05;;;;;;;;;;;;;;;;;;5024483;28;47898;-77
2022/07/21 14:37:31;;;;;;;;;;;;;;;;;;5028316;28;44802;-76
2022/07/21 14:39:58;;;;;;;;;;;;;;;;;;5027442;28;47688;-77
2022/07/21 14:42:24;;;;;;;;;;;;;;;;;;5026362;28;47293;-77
2022/07/21 14:44:50;;;;;;;;;;;;;;;;;;5028698;28;43785;-77
2022/07/21 14:47:17;;;;;;;;;;;;;;;;;;5038691;28;47633;-77
2022/07/21 14:49:43;;;;;;;;;;;;;;;;;;5027846;28;46432;-77
2022/07/21 14:52:09;;;;;;;;;;;;;;;;;;5028895;28;41311;-77
2022/07/21 14:54:36;;;;;;;;;;;;;;;;;;5022972;28;48090;-77
2022/07/21 14:57:02;;;;;;;;;;;;;;;;;;5016284;28;41135;-77
2022/07/21 14:59:36;;;;;;;;;;;;;;;;;;5037130;28;46466;-77
2022/07/21 15:02:14;;;;;;;;;;;;;;;;;;5013464;28;46873;-76
2022/07/21 15:04:46;;;;;;;;;;;;;;;;;;5022101;28;43955;-76
2022/07/21 15:07:12;;;;;;;;;;;;;;;;;;5026203;28;47550;-75
2022/07/21 15:09:39;;;;;;;;;;;;;;;;;;5013970;28;48123;-75
2022/07/21 15:12:05;;;;;;;;;;;;;;;;;;5026526;28;45772;-76
2022/07/21 15:14:31;;;;;;;;;;;;;;;;;;5020357;28;47752;-75
2022/07/21 15:16:57;;;;;;;;;;;;;;;;;;5026185;28;44874;-75
2022/07/21 15:19:24;;;;;;;;;;;;;;;;;;5018320;28;47684;-76
2022/07/21 15:21:50;;;;;;;;;;;;;;;;;;5026122;28;47938;-76
2022/07/21 15:24:16;;;;;;;;;;;;;;;;;;5030427;28;44709;-76
2022/07/21 15:26:43;;;;;;;;;;;;;;;;;;5021691;28;46595;-76
2022/07/21 15:29:09;;;;;;;;;;;;;;;;;;5025619;28;46882;-76
2022/07/21 15:31:35;;;;;;;;;;;;;;;;;;5014722;28;43731;-76
2022/07/21 15:34:01;;;;;;;;;;;;;;;;;;5015404;28;45019;-76
2022/07/21 15:36:29;;;;;;;;;;;;;;;;;;5021189;28;48049;-76
2022/07/21 15:38:56;;;;;;;;;;;;;;;;;;5021459;28;45501;-76
2022/07/21 15:41:23;;;;;;;;;;;;;;;;;;5023404;28;47041;-76
2022/07/21 15:44:09;;;;;;;;;;;;;;;;;;5016791;28;19929;-76
2022/07/21 15:46:35;;;;;;;;;;;;;;;;;;5025859;28;48070;-77
2022/07/21 15:49:02;;;;;;;;;;;;;;;;;;5019609;28;46512;-77
2022/07/21 15:51:28;;;;;;;;;;;;;;;;;;5023759;28;44826;-77
2022/07/21 15:53:54;;;;;;;;;;;;;;;;;;5030380;28;47493;-77
2022/07/21 15:56:21;;;;;;;;;;;;;;;;;;5024840;28;45585;-78
2022/07/21 16:01:33;;;;;;;;;;;;;;;;;;5038310;28;48160;-77
2022/07/21 16:04:00;;;;;;;;;;;;;;;;;;5027585;28;43095;-77
2022/07/21 16:06:26;;;;;;;;;;;;;;;;;;5021964;28;46814;-77
2022/07/21 16:08:53;;;;;;;;;;;;;;;;;;5025501;28;46966;-76
2022/07/21 16:11:19;;;;;;;;;;;;;;;;;;5016709;28;43532;-77
2022/07/21 16:13:45;;;;;;;;;;;;;;;;;;5028214;28;47725;-78
2022/07/21 16:16:11;;;;;;;;;;;;;;;;;;5023505;28;47023;-77
2022/07/21 16:18:38;;;;;;;;;;;;;;;;;;5021482;28;44800;-78
2022/07/21 16:21:04;;;;;;;;;;;;;;;;;;5016688;28;46419;-77
2022/07/21 16:23:31;;;;;;;;;;;;;;;;;;5023058;28;43545;-77
2022/07/21 16:25:57;;;;;;;;;;;;;;;;;;5024277;28;47913;-77
2022/07/21 16:28:23;;;;;;;;;;;;;;;;;;5019013;28;47071;-77
2022/07/21 16:30:49;;;;;;;;;;;;;;;;;;5022380;28;43599;-77
2022/07/21 16:33:17;;;;;;;;;;;;;;;;;;5021350;28;46705;-77
2022/07/21 16:35:44;;;;;;;;;;;;;;;;;;5035267;28;48141;-77
2022/07/21 16:38:10;;;;;;;;;;;;;;;;;;5025968;28;44736;-77
2022/07/21 16:40:36;;;;;;;;;;;;;;;;;;5023423;28;47978;-77
2022/07/21 16:43:02;;;;;;;;;;;;;;;;;;5024572;28;43904;-77
2022/07/21 16:45:29;;;;;;;;;;;;;;;;;;5025460;28;48039;-77
2022/07/21 16:47:55;;;;;;;;;;;;;;;;;;5028512;28;48383;-78
2022/07/21 16:50:21;;;;;;;;;;;;;;;;;;5025779;28;44913;-77
2022/07/21 16:52:48;;;;;;;;;;;;;;;;;;5022114;28;46532;-77